Time;durP1;ratioP1;P1;durP2;ratioP2;P2;SDS_P1;SDS_P2;PMS_P1;PMS_P2;Temp;Humidity;BMP_temperature;BMP_pressure;BME280_temperature;BME280_humidity;BME280_pressure;Samples;Min_cycle;Max_cycle;Signal;HPM_P1;HPM_P2
2021/09/17 00:00:55;;;;;;;8.27;6.57;;;;;;;;;;5027310;28;20064;-78
2021/09/17 00:03:21;;;;;;;6.55;5.50;;;;;;;;;;5026345;28;20107;-75
2021/09/17 00:05:48;;;;;;;12.57;5.45;;;;;;;;;;5027960;28;20036;-78
2021/09/17 00:08:14;;;;;;;8.75;5.20;;;;;;;;;;5027221;28;20041;-77
2021/09/17 00:10:40;;;;;;;9.93;5.63;;;;;;;;;;5025768;28;20030;-78
2021/09/17 00:13:06;;;;;;;10.75;4.72;;;;;;;;;;5007626;28;20042;-78
2021/09/17 00:15:33;;;;;;;13.88;5.63;;;;;;;;;;5007778;28;20502;-77
2021/09/17 00:17:59;;;;;;;8.77;5.05;;;;;;;;;;5006600;28;20025;-77
2021/09/17 00:20:25;;;;;;;7.00;5.75;;;;;;;;;;5007782;28;20060;-74
2021/09/17 00:22:51;;;;;;;5.85;4.72;;;;;;;;;;5008087;28;20033;-79
2021/09/17 00:25:18;;;;;;;8.30;5.20;;;;;;;;;;5008841;28;20030;-76
2021/09/17 00:27:44;;;;;;;8.77;5.00;;;;;;;;;;5012565;28;20037;-73
2021/09/17 00:30:10;;;;;;;8.98;4.80;;;;;;;;;;5025800;28;20588;-77
2021/09/17 00:32:37;;;;;;;8.98;4.88;;;;;;;;;;5027097;28;20030;-80
2021/09/17 00:35:03;;;;;;;9.00;4.65;;;;;;;;;;5026938;28;20112;-77
2021/09/17 00:37:30;;;;;;;8.18;4.68;;;;;;;;;;5026649;28;20033;-77
2021/09/17 00:39:56;;;;;;;8.77;4.95;;;;;;;;;;5026842;28;20384;-78
2021/09/17 00:42:22;;;;;;;9.40;5.10;;;;;;;;;;5025326;28;20067;-78
2021/09/17 00:44:48;;;;;;;7.35;4.88;;;;;;;;;;5026823;28;20091;-76
2021/09/17 00:47:15;;;;;;;10.40;4.97;;;;;;;;;;5027176;28;20481;-78
2021/09/17 00:49:41;;;;;;;7.50;5.10;;;;;;;;;;5026559;28;20381;-73
2021/09/17 00:52:08;;;;;;;8.07;5.20;;;;;;;;;;5027071;28;20022;-78
2021/09/17 00:54:34;;;;;;;8.70;4.57;;;;;;;;;;5026905;28;20026;-78
2021/09/17 00:57:02;;;;;;;8.40;4.90;;;;;;;;;;5025165;28;20108;-77
2021/09/17 00:59:28;;;;;;;10.70;6.15;;;;;;;;;;5026862;28;20025;-78
2021/09/17 01:01:55;;;;;;;10.80;5.57;;;;;;;;;;5026707;28;20496;-78
2021/09/17 01:04:22;;;;;;;9.60;4.50;;;;;;;;;;5026649;28;20433;-76
2021/09/17 01:06:48;;;;;;;11.07;4.60;;;;;;;;;;5026826;28;20033;-77
2021/09/17 01:09:14;;;;;;;9.57;4.95;;;;;;;;;;5024464;28;20105;-79
2021/09/17 01:11:41;;;;;;;10.70;4.95;;;;;;;;;;5026811;28;20037;-76
2021/09/17 01:14:07;;;;;;;9.18;4.82;;;;;;;;;;5026266;28;20060;-75
2021/09/17 01:16:33;;;;;;;8.77;4.85;;;;;;;;;;5026332;28;20061;-78
2021/09/17 01:19:00;;;;;;;10.45;5.15;;;;;;;;;;5026612;28;20061;-73
2021/09/17 01:21:26;;;;;;;10.20;5.00;;;;;;;;;;5026645;28;20033;-77
2021/09/17 01:23:53;;;;;;;9.95;5.75;;;;;;;;;;5025118;28;20038;-73
2021/09/17 01:26:19;;;;;;;7.93;4.80;;;;;;;;;;5026726;28;20048;-77
2021/09/17 01:28:46;;;;;;;8.32;4.90;;;;;;;;;;5026648;28;20083;-73
2021/09/17 01:31:12;;;;;;;7.45;4.70;;;;;;;;;;5026480;28;20018;-76
2021/09/17 01:33:38;;;;;;;8.63;4.90;;;;;;;;;;5025144;28;20056;-76
2021/09/17 01:36:06;;;;;;;5.80;5.20;;;;;;;;;;5026476;28;20136;-77
2021/09/17 01:38:33;;;;;;;8.07;5.28;;;;;;;;;;5026306;28;20191;-77
2021/09/17 01:41:00;;;;;;;7.95;5.47;;;;;;;;;;5024962;28;20028;-74
2021/09/17 01:43:26;;;;;;;7.15;5.05;;;;;;;;;;5026189;28;20063;-77
2021/09/17 01:45:53;;;;;;;9.60;6.03;;;;;;;;;;5008490;28;20046;-75
2021/09/17 01:48:19;;;;;;;9.45;5.47;;;;;;;;;;5026850;28;20026;-72
2021/09/17 01:50:46;;;;;;;8.75;4.70;;;;;;;;;;5016103;28;20057;-77
2021/09/17 01:53:12;;;;;;;10.13;4.70;;;;;;;;;;5010504;28;20057;-72
2021/09/17 01:55:38;;;;;;;9.45;4.50;;;;;;;;;;5013412;28;20028;-76
2021/09/17 01:58:05;;;;;;;6.60;4.03;;;;;;;;;;5030079;28;20025;-77
2021/09/17 02:00:32;;;;;;;7.03;4.55;;;;;;;;;;5029776;28;20107;-74
2021/09/17 02:02:58;;;;;;;7.05;4.70;;;;;;;;;;5028617;28;20105;-73
2021/09/17 02:05:24;;;;;;;9.15;5.10;;;;;;;;;;5030253;28;20025;-78
2021/09/17 02:07:50;;;;;;;8.27;4.68;;;;;;;;;;5030115;28;20099;-72
2021/09/17 02:10:18;;;;;;;10.32;4.25;;;;;;;;;;5029489;28;20021;-72
2021/09/17 02:12:44;;;;;;;10.15;4.35;;;;;;;;;;5011081;28;20038;-72
2021/09/17 02:15:11;;;;;;;7.18;4.72;;;;;;;;;;5009928;28;20026;-72
2021/09/17 02:17:37;;;;;;;9.52;4.50;;;;;;;;;;5009570;28;20049;-72
2021/09/17 02:20:06;;;;;;;7.82;4.97;;;;;;;;;;5009756;28;20045;-72
2021/09/17 02:22:34;;;;;;;11.13;5.65;;;;;;;;;;5008533;28;20436;-73
2021/09/17 02:25:00;;;;;;;10.43;5.10;;;;;;;;;;5009668;28;20030;-72
2021/09/17 02:27:26;;;;;;;12.15;6.00;;;;;;;;;;5023656;28;20041;-81
2021/09/17 02:29:53;;;;;;;8.25;5.60;;;;;;;;;;5006072;28;20034;-76
2021/09/17 02:32:19;;;;;;;9.80;5.53;;;;;;;;;;5012837;28;20421;-75
2021/09/17 02:34:45;;;;;;;11.70;5.43;;;;;;;;;;5023643;28;20033;-73
2021/09/17 02:37:11;;;;;;;9.25;5.63;;;;;;;;;;5003639;28;20709;-75
2021/09/17 02:39:38;;;;;;;13.77;5.68;;;;;;;;;;5004328;28;20049;-73
2021/09/17 02:42:04;;;;;;;11.48;4.88;;;;;;;;;;5021344;28;20108;-74
2021/09/17 02:44:31;;;;;;;10.75;4.80;;;;;;;;;;5016487;28;20042;-73
2021/09/17 02:46:57;;;;;;;9.35;4.03;;;;;;;;;;5017784;28;20041;-79
2021/09/17 02:49:23;;;;;;;7.88;4.72;;;;;;;;;;5023745;28;20069;-75
2021/09/17 02:51:50;;;;;;;8.98;4.47;;;;;;;;;;5024438;28;20095;-75
2021/09/17 02:54:16;;;;;;;11.10;4.60;;;;;;;;;;5023891;28;20064;-77
2021/09/17 02:56:42;;;;;;;9.65;5.18;;;;;;;;;;5023154;28;20117;-77
2021/09/17 02:59:08;;;;;;;10.70;4.80;;;;;;;;;;5024513;28;20643;-73
2021/09/17 03:01:35;;;;;;;8.38;4.03;;;;;;;;;;5023034;28;20025;-74
2021/09/17 03:04:01;;;;;;;9.93;4.40;;;;;;;;;;5020873;28;20041;-74
2021/09/17 03:06:27;;;;;;;12.30;4.90;;;;;;;;;;5020440;28;20048;-75
2021/09/17 03:08:53;;;;;;;13.55;4.72;;;;;;;;;;5021521;28;20044;-78
2021/09/17 03:11:20;;;;;;;9.27;3.95;;;;;;;;;;5021176;28;20500;-73
2021/09/17 03:13:46;;;;;;;10.45;4.47;;;;;;;;;;5021968;28;20127;-80
2021/09/17 03:16:12;;;;;;;14.18;4.85;;;;;;;;;;5020439;28;20032;-73
2021/09/17 03:18:39;;;;;;;10.95;4.75;;;;;;;;;;5021884;28;20025;-73
2021/09/17 03:21:05;;;;;;;8.38;4.55;;;;;;;;;;5019702;28;20105;-77
2021/09/17 03:23:31;;;;;;;10.18;4.38;;;;;;;;;;5012311;28;20064;-72
2021/09/17 03:25:58;;;;;;;6.93;4.38;;;;;;;;;;5007466;28;20057;-79
2021/09/17 03:28:24;;;;;;;9.15;4.25;;;;;;;;;;5003166;28;20404;-73
2021/09/17 03:30:51;;;;;;;10.82;4.93;;;;;;;;;;5020923;28;20060;-74
2021/09/17 03:33:17;;;;;;;10.95;4.45;;;;;;;;;;5008108;28;20037;-74
2021/09/17 03:35:44;;;;;;;9.60;4.53;;;;;;;;;;5001356;28;20092;-73
2021/09/17 03:38:11;;;;;;;7.60;5.07;;;;;;;;;;4999912;28;20049;-73
2021/09/17 03:40:39;;;;;;;10.50;4.30;;;;;;;;;;5000921;28;20025;-72
2021/09/17 03:43:06;;;;;;;8.63;4.93;;;;;;;;;;5001890;28;20037;-74
2021/09/17 03:45:34;;;;;;;14.20;4.72;;;;;;;;;;5008562;28;20041;-75
2021/09/17 03:48:08;;;;;;;9.25;4.63;;;;;;;;;;5020200;28;20768;-78
2021/09/17 03:50:34;;;;;;;8.82;5.38;;;;;;;;;;5017040;28;20409;-73
2021/09/17 03:53:00;;;;;;;11.30;5.15;;;;;;;;;;5020802;28;20033;-78
2021/09/17 03:55:27;;;;;;;11.27;4.93;;;;;;;;;;5021017;28;20033;-75
2021/09/17 03:57:53;;;;;;;11.48;4.70;;;;;;;;;;5003178;28;20076;-74
2021/09/17 04:00:20;;;;;;;9.93;4.70;;;;;;;;;;4997416;28;20034;-76
2021/09/17 04:02:46;;;;;;;14.63;4.97;;;;;;;;;;5020389;28;20037;-73
2021/09/17 04:05:12;;;;;;;14.10;5.20;;;;;;;;;;5020780;28;20144;-74
2021/09/17 04:07:39;;;;;;;9.20;4.95;;;;;;;;;;5020608;28;20148;-73
2021/09/17 04:10:07;;;;;;;10.70;6.22;;;;;;;;;;5021210;28;20047;-73
2021/09/17 04:12:33;;;;;;;10.90;6.45;;;;;;;;;;5018480;28;20048;-74
2021/09/17 04:14:59;;;;;;;12.27;7.28;;;;;;;;;;5020416;28;20115;-79
2021/09/17 04:17:25;;;;;;;10.55;8.15;;;;;;;;;;5020662;28;20021;-73
2021/09/17 04:19:52;;;;;;;8.68;7.75;;;;;;;;;;5020603;28;20030;-73
2021/09/17 04:22:18;;;;;;;12.27;7.53;;;;;;;;;;4994553;28;20033;-72
2021/09/17 04:24:44;;;;;;;11.68;7.72;;;;;;;;;;5020666;28;20021;-76
2021/09/17 04:27:11;;;;;;;10.32;7.47;;;;;;;;;;5002004;28;20103;-75
2021/09/17 04:29:37;;;;;;;10.93;8.60;;;;;;;;;;5019974;28;20135;-73
2021/09/17 04:32:03;;;;;;;9.27;7.30;;;;;;;;;;5005677;28;20034;-73
2021/09/17 04:34:30;;;;;;;9.55;7.72;;;;;;;;;;5002967;28;20449;-72
2021/09/17 04:36:56;;;;;;;14.73;8.38;;;;;;;;;;5010654;28;20083;-71
2021/09/17 04:39:22;;;;;;;12.10;8.00;;;;;;;;;;5002759;28;20498;-72
2021/09/17 04:41:48;;;;;;;10.32;7.72;;;;;;;;;;5010245;28;20084;-72
2021/09/17 04:44:15;;;;;;;10.63;7.93;;;;;;;;;;5001292;28;20531;-77
2021/09/17 04:46:41;;;;;;;8.80;6.97;;;;;;;;;;5017815;28;20516;-74
2021/09/17 04:49:07;;;;;;;12.82;7.18;;;;;;;;;;5022017;28;20120;-71
2021/09/17 04:51:33;;;;;;;9.55;6.72;;;;;;;;;;5021743;28;20025;-71
2021/09/17 04:54:00;;;;;;;9.48;6.90;;;;;;;;;;5021087;28;20022;-72
2021/09/17 04:56:26;;;;;;;9.85;8.10;;;;;;;;;;5022439;28;20397;-71
2021/09/17 04:58:52;;;;;;;12.65;7.88;;;;;;;;;;5020595;28;20072;-75
2021/09/17 05:01:18;;;;;;;8.88;7.57;;;;;;;;;;5016697;28;20025;-74
2021/09/17 05:03:45;;;;;;;10.32;8.07;;;;;;;;;;5020066;28;20033;-78
2021/09/17 05:06:11;;;;;;;10.02;7.55;;;;;;;;;;5020191;28;20022;-74
2021/09/17 05:08:38;;;;;;;11.55;6.82;;;;;;;;;;5019354;28;20038;-72
2021/09/17 05:11:04;;;;;;;9.65;6.13;;;;;;;;;;5017677;28;20061;-77
2021/09/17 05:13:30;;;;;;;13.85;6.25;;;;;;;;;;5001784;28;20037;-73
2021/09/17 05:15:56;;;;;;;9.90;6.50;;;;;;;;;;5019511;28;20025;-76
2021/09/17 05:18:23;;;;;;;9.50;6.93;;;;;;;;;;5018426;28;20140;-73
2021/09/17 05:20:49;;;;;;;13.38;7.60;;;;;;;;;;5013489;28;20125;-73
2021/09/17 05:23:15;;;;;;;8.93;8.00;;;;;;;;;;5020527;28;20156;-74
2021/09/17 05:25:42;;;;;;;9.95;8.07;;;;;;;;;;5023508;28;20098;-74
2021/09/17 05:28:08;;;;;;;10.07;7.40;;;;;;;;;;5022335;28;20073;-77
2021/09/17 05:30:34;;;;;;;8.70;7.78;;;;;;;;;;5023732;28;20053;-74
2021/09/17 05:33:01;;;;;;;14.75;9.05;;;;;;;;;;5023392;28;20038;-73
2021/09/17 05:35:28;;;;;;;11.13;8.00;;;;;;;;;;5023751;28;20033;-74
2021/09/17 05:37:54;;;;;;;10.68;8.60;;;;;;;;;;5022007;28;20056;-78
2021/09/17 05:40:20;;;;;;;9.13;7.95;;;;;;;;;;5023881;28;20474;-75
2021/09/17 05:42:47;;;;;;;10.43;7.32;;;;;;;;;;5023255;28;20033;-78
2021/09/17 05:45:13;;;;;;;9.30;7.43;;;;;;;;;;5005113;28;20524;-74
2021/09/17 05:47:41;;;;;;;9.73;6.93;;;;;;;;;;5022633;28;20444;-74
2021/09/17 05:50:08;;;;;;;11.15;7.50;;;;;;;;;;5021704;28;20025;-79
2021/09/17 05:52:35;;;;;;;11.07;7.53;;;;;;;;;;5004584;28;20116;-73
2021/09/17 05:55:01;;;;;;;9.57;7.25;;;;;;;;;;5003798;28;20018;-74
2021/09/17 05:57:27;;;;;;;10.50;7.63;;;;;;;;;;5003598;28;20145;-77
2021/09/17 05:59:53;;;;;;;10.02;7.55;;;;;;;;;;5003298;28;20054;-75
2021/09/17 06:02:19;;;;;;;10.07;7.60;;;;;;;;;;5001484;28;20181;-74
2021/09/17 06:04:46;;;;;;;9.55;7.45;;;;;;;;;;5003128;28;20032;-79
2021/09/17 06:07:12;;;;;;;10.88;7.65;;;;;;;;;;5003138;28;20030;-73
2021/09/17 06:09:38;;;;;;;11.20;8.00;;;;;;;;;;5010098;28;20392;-74
2021/09/17 06:12:05;;;;;;;10.75;7.70;;;;;;;;;;5023009;28;20021;-74
2021/09/17 06:14:31;;;;;;;11.18;7.15;;;;;;;;;;5025188;28;20029;-73
2021/09/17 06:16:57;;;;;;;8.82;7.70;;;;;;;;;;5024911;28;20021;-74
2021/09/17 06:19:24;;;;;;;10.65;7.85;;;;;;;;;;5024681;28;20088;-72
2021/09/17 06:21:50;;;;;;;12.13;7.47;;;;;;;;;;5024343;28;20037;-74
2021/09/17 06:24:16;;;;;;;9.82;6.88;;;;;;;;;;5024848;28;20021;-73
2021/09/17 06:26:43;;;;;;;11.73;6.53;;;;;;;;;;5023181;28;20106;-73
2021/09/17 06:29:09;;;;;;;8.55;6.40;;;;;;;;;;5024624;28;20374;-73
2021/09/17 06:31:36;;;;;;;10.55;6.53;;;;;;;;;;5004244;28;20034;-79
2021/09/17 06:34:05;;;;;;;8.73;6.60;;;;;;;;;;5002608;28;20026;-74
2021/09/17 06:36:32;;;;;;;10.60;7.13;;;;;;;;;;5001271;28;20551;-74
2021/09/17 06:39:00;;;;;;;11.13;7.43;;;;;;;;;;5002647;28;20026;-78
2021/09/17 06:41:27;;;;;;;9.95;6.63;;;;;;;;;;5014768;28;20043;-78
2021/09/17 06:43:54;;;;;;;8.90;6.60;;;;;;;;;;5014158;28;20079;-76
2021/09/17 06:46:20;;;;;;;12.13;6.95;;;;;;;;;;5021912;28;20725;-75
2021/09/17 06:48:46;;;;;;;7.88;5.90;;;;;;;;;;5021263;28;20107;-75
2021/09/17 06:51:12;;;;;;;10.50;5.63;;;;;;;;;;5020412;28;20158;-73
2021/09/17 06:53:39;;;;;;;10.88;6.38;;;;;;;;;;5022046;28;20040;-73
2021/09/17 06:56:05;;;;;;;9.82;6.40;;;;;;;;;;5021819;28;20018;-78
2021/09/17 06:58:31;;;;;;;9.10;7.15;;;;;;;;;;5001251;28;20065;-73
2021/09/17 07:00:58;;;;;;;11.35;7.15;;;;;;;;;;5002718;28;20486;-75
2021/09/17 07:03:24;;;;;;;10.75;7.45;;;;;;;;;;5002605;28;20068;-75
2021/09/17 07:05:51;;;;;;;9.55;6.88;;;;;;;;;;5011021;28;20052;-74
2021/09/17 07:08:20;;;;;;;10.68;7.65;;;;;;;;;;5026215;28;20033;-74
2021/09/17 07:10:47;;;;;;;12.07;6.90;;;;;;;;;;5019024;28;20532;-76
2021/09/17 07:13:14;;;;;;;12.45;7.32;;;;;;;;;;5016390;28;20057;-73
2021/09/17 07:15:40;;;;;;;8.93;6.97;;;;;;;;;;5020442;28;20068;-74
2021/09/17 07:18:06;;;;;;;9.23;6.28;;;;;;;;;;5018454;28;20065;-75
2021/09/17 07:20:33;;;;;;;11.00;6.55;;;;;;;;;;5021485;28;20738;-74
2021/09/17 07:23:00;;;;;;;8.20;6.30;;;;;;;;;;5021332;28;20540;-77
2021/09/17 07:25:26;;;;;;;9.43;6.30;;;;;;;;;;5019616;28;20025;-73
2021/09/17 07:27:53;;;;;;;7.80;6.38;;;;;;;;;;5019625;28;20047;-74
2021/09/17 07:30:19;;;;;;;9.63;6.60;;;;;;;;;;5018203;28;20072;-78
2021/09/17 07:32:46;;;;;;;11.75;6.78;;;;;;;;;;5002015;28;20468;-77
2021/09/17 07:35:12;;;;;;;8.25;6.10;;;;;;;;;;5022127;28;20097;-74
2021/09/17 07:37:39;;;;;;;9.00;6.85;;;;;;;;;;5017424;28;20424;-73
2021/09/17 07:40:06;;;;;;;10.95;7.45;;;;;;;;;;5021688;28;20421;-74
2021/09/17 07:42:32;;;;;;;7.65;6.82;;;;;;;;;;5022870;28;20029;-75
2021/09/17 07:44:58;;;;;;;8.35;5.47;;;;;;;;;;5023029;28;20050;-73
2021/09/17 07:47:24;;;;;;;9.15;5.13;;;;;;;;;;5020416;28;20083;-74
2021/09/17 07:49:51;;;;;;;10.98;5.32;;;;;;;;;;5023484;28;20035;-74
2021/09/17 07:52:18;;;;;;;11.98;6.25;;;;;;;;;;5023155;28;20022;-74
2021/09/17 07:54:44;;;;;;;8.40;6.00;;;;;;;;;;5022644;28;20029;-74
2021/09/17 07:57:11;;;;;;;11.43;6.70;;;;;;;;;;5023022;28;20021;-74
2021/09/17 07:59:37;;;;;;;10.77;7.18;;;;;;;;;;5005085;28;20029;-75
2021/09/17 08:02:03;;;;;;;12.60;8.02;;;;;;;;;;5020828;28;20028;-76
2021/09/17 08:04:29;;;;;;;14.43;7.55;;;;;;;;;;5022208;28;20068;-77
2021/09/17 08:06:56;;;;;;;13.75;7.35;;;;;;;;;;5022380;28;20029;-74
2021/09/17 08:09:22;;;;;;;24.92;7.88;;;;;;;;;;5023045;28;20033;-75
2021/09/17 08:11:48;;;;;;;13.90;7.28;;;;;;;;;;5014924;28;20087;-74
2021/09/17 08:14:14;;;;;;;19.40;8.50;;;;;;;;;;5002113;28;20026;-75
2021/09/17 08:16:41;;;;;;;14.50;8.75;;;;;;;;;;5006966;28;20136;-75
2021/09/17 08:19:07;;;;;;;15.18;8.88;;;;;;;;;;5015813;28;20537;-73
2021/09/17 08:21:36;;;;;;;12.32;8.32;;;;;;;;;;5002445;28;20034;-74
2021/09/17 08:24:02;;;;;;;12.05;8.10;;;;;;;;;;5016182;28;20017;-76
2021/09/17 08:26:28;;;;;;;14.38;8.60;;;;;;;;;;5022557;28;20144;-74
2021/09/17 08:28:55;;;;;;;16.77;9.75;;;;;;;;;;5013983;28;20096;-76
2021/09/17 08:31:21;;;;;;;14.25;8.23;;;;;;;;;;5015557;28;20626;-73
2021/09/17 08:33:47;;;;;;;12.63;9.55;;;;;;;;;;5016317;28;20026;-75
2021/09/17 08:36:14;;;;;;;13.45;8.73;;;;;;;;;;5013967;28;20087;-74
2021/09/17 08:38:40;;;;;;;10.95;8.27;;;;;;;;;;5018426;28;20814;-73
2021/09/17 08:41:06;;;;;;;12.63;8.80;;;;;;;;;;5012423;28;20084;-73
2021/09/17 08:43:32;;;;;;;9.68;8.73;;;;;;;;;;5019766;28;20455;-74
2021/09/17 08:45:59;;;;;;;14.32;9.30;;;;;;;;;;5017262;28;20060;-74
2021/09/17 08:48:27;;;;;;;12.93;7.85;;;;;;;;;;5013790;28;20795;-74
2021/09/17 08:50:54;;;;;;;12.00;8.18;;;;;;;;;;5038985;28;20134;-76
2021/09/17 08:53:20;;;;;;;16.75;8.15;;;;;;;;;;5025567;28;20086;-74
2021/09/17 08:55:48;;;;;;;11.63;7.90;;;;;;;;;;5018900;28;20666;-73
2021/09/17 08:58:14;;;;;;;12.40;8.25;;;;;;;;;;5018737;28;20045;-75
2021/09/17 09:00:41;;;;;;;12.20;8.45;;;;;;;;;;5018794;28;20033;-73
2021/09/17 09:03:09;;;;;;;10.82;7.95;;;;;;;;;;5008086;28;20433;-74
2021/09/17 09:05:36;;;;;;;13.85;8.85;;;;;;;;;;5001131;28;20030;-76
2021/09/17 09:08:03;;;;;;;9.25;8.20;;;;;;;;;;4999639;28;20095;-75
2021/09/17 09:10:30;;;;;;;14.25;8.05;;;;;;;;;;4999306;28;20054;-74
2021/09/17 09:12:57;;;;;;;11.73;8.57;;;;;;;;;;4999955;28;20034;-76
2021/09/17 09:15:29;;;;;;;11.15;7.97;;;;;;;;;;4996356;28;20575;-74
2021/09/17 09:17:56;;;;;;;9.93;7.30;;;;;;;;;;4999411;28;20053;-75
2021/09/17 09:20:22;;;;;;;11.07;7.85;;;;;;;;;;5017059;28;20026;-74
2021/09/17 09:23:04;;;;;;;11.70;7.68;;;;;;;;;;5018927;28;20029;-75
2021/09/17 09:25:30;;;;;;;13.50;7.85;;;;;;;;;;5018316;28;20026;-77
2021/09/17 09:28:12;;;;;;;11.65;7.63;;;;;;;;;;5018795;28;20034;-74
2021/09/17 09:30:39;;;;;;;11.32;6.47;;;;;;;;;;5018560;28;20021;-74
2021/09/17 09:33:24;;;;;;;9.10;6.97;;;;;;;;;;5012871;28;20029;-75
2021/09/17 09:36:07;;;;;;;13.80;7.78;;;;;;;;;;5028598;28;20035;-73
2021/09/17 09:38:51;;;;;;;11.27;7.47;;;;;;;;;;5034208;28;20039;-74
2021/09/17 09:41:19;;;;;;;9.45;7.50;;;;;;;;;;5018325;28;20156;-75
2021/09/17 09:43:51;;;;;;;12.35;7.28;;;;;;;;;;5018463;28;20551;-73
2021/09/17 09:46:25;;;;;;;15.00;8.55;;;;;;;;;;5018229;28;20673;-73
2021/09/17 09:48:58;;;;;;;14.85;8.25;;;;;;;;;;5012690;28;20688;-73
2021/09/17 09:51:24;;;;;;;13.13;8.00;;;;;;;;;;5036949;28;20040;-74
2021/09/17 09:53:50;;;;;;;10.25;8.07;;;;;;;;;;5039078;28;20021;-73
2021/09/17 09:56:19;;;;;;;9.48;7.10;;;;;;;;;;5025740;28;20831;-73
2021/09/17 09:58:47;;;;;;;11.07;6.85;;;;;;;;;;5009919;28;20116;-73
2021/09/17 10:01:13;;;;;;;13.07;7.22;;;;;;;;;;5019371;28;20048;-73
2021/09/17 10:03:39;;;;;;;12.88;7.75;;;;;;;;;;5019280;28;20545;-76
2021/09/17 10:06:06;;;;;;;9.27;7.25;;;;;;;;;;5020917;28;20017;-74
2021/09/17 10:08:32;;;;;;;9.98;6.03;;;;;;;;;;5007857;28;20049;-75
2021/09/17 10:10:58;;;;;;;16.45;6.75;;;;;;;;;;5003967;28;20056;-74
2021/09/17 10:13:25;;;;;;;11.98;6.47;;;;;;;;;;5005183;28;20037;-74
2021/09/17 10:15:51;;;;;;;10.35;5.90;;;;;;;;;;5006691;28;20612;-74
2021/09/17 10:18:18;;;;;;;9.57;6.18;;;;;;;;;;5023772;28;20366;-75
2021/09/17 10:20:45;;;;;;;10.43;6.28;;;;;;;;;;5006611;28;20503;-74
2021/09/17 10:23:26;;;;;;;11.48;6.70;;;;;;;;;;5024532;28;20216;-74
2021/09/17 10:26:02;;;;;;;11.65;6.22;;;;;;;;;;5006773;28;20430;-76
2021/09/17 10:28:28;;;;;;;8.50;6.45;;;;;;;;;;5022500;28;20039;-77
2021/09/17 10:31:09;;;;;;;7.57;5.68;;;;;;;;;;5024042;28;20029;-76
2021/09/17 10:33:38;;;;;;;11.93;5.57;;;;;;;;;;5023869;28;20802;-75
2021/09/17 10:36:05;;;;;;;7.93;5.57;;;;;;;;;;5024049;28;20112;-77
2021/09/17 10:38:32;;;;;;;7.90;6.13;;;;;;;;;;5021901;28;20021;-76
2021/09/17 10:41:02;;;;;;;11.98;7.35;;;;;;;;;;5024288;28;20026;-75
2021/09/17 10:43:31;;;;;;;16.15;7.38;;;;;;;;;;5024067;28;20029;-74
2021/09/17 10:45:59;;;;;;;11.20;6.90;;;;;;;;;;5023439;28;20069;-74
2021/09/17 10:48:31;;;;;;;11.07;6.90;;;;;;;;;;5023433;28;20065;-75
2021/09/17 10:50:59;;;;;;;11.77;7.25;;;;;;;;;;5023833;28;20048;-75
2021/09/17 10:53:40;;;;;;;10.18;7.18;;;;;;;;;;5022578;28;20068;-74
2021/09/17 10:56:13;;;;;;;8.85;6.80;;;;;;;;;;5023988;28;20497;-72
2021/09/17 10:58:43;;;;;;;11.00;6.30;;;;;;;;;;5024278;28;20048;-75
2021/09/17 11:01:13;;;;;;;10.43;5.18;;;;;;;;;;5002376;28;20037;-75
2021/09/17 11:03:39;;;;;;;8.55;5.53;;;;;;;;;;5015941;28;20060;-74
2021/09/17 11:06:27;;;;;;;11.73;5.35;;;;;;;;;;5000620;28;20057;-73
2021/09/17 11:08:54;;;;;;;9.50;5.57;;;;;;;;;;5001862;28;20045;-74
2021/09/17 11:11:29;;;;;;;8.25;6.00;;;;;;;;;;5012911;28;20033;-74
2021/09/17 11:13:57;;;;;;;8.43;5.50;;;;;;;;;;5019572;28;20041;-75
2021/09/17 11:16:24;;;;;;;8.35;6.05;;;;;;;;;;5020999;28;20025;-75
2021/09/17 11:18:59;;;;;;;8.20;5.55;;;;;;;;;;5015728;28;20061;-76
2021/09/17 11:21:27;;;;;;;10.77;6.60;;;;;;;;;;5019129;28;20022;-74
2021/09/17 11:23:53;;;;;;;13.52;6.47;;;;;;;;;;5019279;28;20381;-73
2021/09/17 11:26:20;;;;;;;9.43;6.53;;;;;;;;;;5020386;28;20799;-74
2021/09/17 11:28:57;;;;;;;8.50;7.30;;;;;;;;;;5019356;28;20033;-74
2021/09/17 11:31:26;;;;;;;13.52;7.82;;;;;;;;;;5020857;28;20018;-74
2021/09/17 11:34:03;;;;;;;8.55;6.70;;;;;;;;;;5020495;28;20026;-75
2021/09/17 11:36:35;;;;;;;10.18;7.03;;;;;;;;;;5020080;28;20025;-74
2021/09/17 11:39:11;;;;;;;12.07;7.10;;;;;;;;;;5021213;28;20017;-74
2021/09/17 11:41:38;;;;;;;10.23;6.60;;;;;;;;;;5019073;28;20030;-75
2021/09/17 11:44:05;;;;;;;12.88;7.68;;;;;;;;;;5019811;28;20140;-74
2021/09/17 11:46:31;;;;;;;9.82;6.72;;;;;;;;;;5020697;28;20029;-74
2021/09/17 11:48:57;;;;;;;7.93;6.72;;;;;;;;;;5019801;28;20074;-74
2021/09/17 11:51:23;;;;;;;10.13;6.80;;;;;;;;;;5018038;28;20041;-74
2021/09/17 11:53:50;;;;;;;9.45;6.70;;;;;;;;;;5019230;28;20116;-75
2021/09/17 11:56:16;;;;;;;10.90;6.70;;;;;;;;;;5019808;28;20328;-74
2021/09/17 11:58:43;;;;;;;8.27;6.85;;;;;;;;;;5018352;28;20025;-73
2021/09/17 12:01:22;;;;;;;10.10;7.13;;;;;;;;;;5019546;28;20061;-74
2021/09/17 12:03:52;;;;;;;10.25;6.55;;;;;;;;;;5001693;28;20251;-74
2021/09/17 12:06:19;;;;;;;8.07;6.93;;;;;;;;;;5019477;28;20040;-73
2021/09/17 12:08:45;;;;;;;8.25;6.68;;;;;;;;;;5008974;28;20041;-73
2021/09/17 12:11:13;;;;;;;11.57;7.43;;;;;;;;;;5018249;28;20032;-74
2021/09/17 12:13:39;;;;;;;12.10;6.38;;;;;;;;;;5015392;28;20655;-75
2021/09/17 12:16:06;;;;;;;10.32;6.82;;;;;;;;;;5033222;28;20469;-74
2021/09/17 12:18:33;;;;;;;9.95;6.70;;;;;;;;;;5025993;28;20021;-74
2021/09/17 12:21:02;;;;;;;6.72;5.93;;;;;;;;;;5038010;28;20075;-74
2021/09/17 12:23:31;;;;;;;7.90;5.57;;;;;;;;;;5019190;28;20033;-73
2021/09/17 12:26:07;;;;;;;12.80;6.18;;;;;;;;;;5020011;28;20083;-73
2021/09/17 12:28:33;;;;;;;8.50;6.03;;;;;;;;;;5018188;28;20033;-74
2021/09/17 12:30:59;;;;;;;11.60;6.25;;;;;;;;;;5020071;28;20052;-73
2021/09/17 12:33:29;;;;;;;10.10;5.50;;;;;;;;;;5018472;28;20065;-73
2021/09/17 12:35:56;;;;;;;10.65;5.63;;;;;;;;;;5019002;28;20022;-73
2021/09/17 12:38:24;;;;;;;9.05;6.47;;;;;;;;;;5019506;28;20029;-73
2021/09/17 12:40:52;;;;;;;10.25;6.70;;;;;;;;;;5017682;28;20021;-74
2021/09/17 12:43:25;;;;;;;10.50;6.28;;;;;;;;;;5019782;28;20871;-74
2021/09/17 12:46:05;;;;;;;6.90;5.72;;;;;;;;;;5019824;28;20886;-75
2021/09/17 12:48:35;;;;;;;9.20;6.43;;;;;;;;;;5017324;28;20043;-73
2021/09/17 12:51:03;;;;;;;9.40;6.87;;;;;;;;;;5019169;28;20028;-73
2021/09/17 12:53:33;;;;;;;12.50;5.78;;;;;;;;;;5019176;28;20029;-74
2021/09/17 12:56:01;;;;;;;11.20;7.20;;;;;;;;;;5016254;28;20078;-75
2021/09/17 12:58:30;;;;;;;9.77;6.57;;;;;;;;;;4997656;28;20038;-74
2021/09/17 13:00:57;;;;;;;10.02;6.40;;;;;;;;;;4999548;28;20114;-72
2021/09/17 13:03:23;;;;;;;12.77;6.90;;;;;;;;;;5008123;28;20690;-74
2021/09/17 13:05:51;;;;;;;13.13;6.65;;;;;;;;;;5017940;28;20053;-74
2021/09/17 13:08:17;;;;;;;8.30;5.90;;;;;;;;;;5018334;28;20041;-73
2021/09/17 13:10:44;;;;;;;11.82;6.25;;;;;;;;;;5019412;28;20033;-74
2021/09/17 13:13:10;;;;;;;12.82;6.63;;;;;;;;;;5013269;28;20022;-73
2021/09/17 13:15:37;;;;;;;9.77;7.00;;;;;;;;;;4998383;28;20054;-73
2021/09/17 13:18:04;;;;;;;9.00;6.93;;;;;;;;;;5009117;28;20033;-73
2021/09/17 13:20:31;;;;;;;7.95;7.05;;;;;;;;;;5019006;28;20025;-74
2021/09/17 13:22:58;;;;;;;8.52;6.57;;;;;;;;;;5018693;28;20486;-73
2021/09/17 13:25:24;;;;;;;8.57;6.55;;;;;;;;;;5018714;28;20165;-73
2021/09/17 13:27:51;;;;;;;9.05;6.80;;;;;;;;;;5018857;28;20065;-73
2021/09/17 13:30:19;;;;;;;10.57;6.80;;;;;;;;;;4998939;28;20531;-73
2021/09/17 13:32:46;;;;;;;8.57;6.60;;;;;;;;;;4999145;28;20033;-73
2021/09/17 13:35:13;;;;;;;13.43;5.95;;;;;;;;;;4999189;28;20561;-73
2021/09/17 13:37:39;;;;;;;7.38;5.78;;;;;;;;;;4999617;28;20037;-72
2021/09/17 13:40:09;;;;;;;9.07;6.25;;;;;;;;;;5018158;28;20438;-73
2021/09/17 13:42:35;;;;;;;8.93;5.90;;;;;;;;;;5019049;28;20521;-73
2021/09/17 13:45:02;;;;;;;11.82;6.22;;;;;;;;;;5019935;28;20517;-74
2021/09/17 13:47:28;;;;;;;8.23;6.05;;;;;;;;;;5013929;28;20105;-73
2021/09/17 13:49:54;;;;;;;7.18;5.95;;;;;;;;;;5003047;28;20617;-73
2021/09/17 13:52:20;;;;;;;8.05;5.40;;;;;;;;;;5004799;28;20036;-74
2021/09/17 13:54:47;;;;;;;8.30;5.70;;;;;;;;;;5022785;28;20040;-74
2021/09/17 13:57:13;;;;;;;8.43;5.93;;;;;;;;;;5022871;28;20033;-73
2021/09/17 13:59:39;;;;;;;9.25;5.65;;;;;;;;;;5019885;28;20066;-73
2021/09/17 14:02:06;;;;;;;9.52;6.20;;;;;;;;;;5018296;28;20706;-75
2021/09/17 14:04:33;;;;;;;8.52;6.45;;;;;;;;;;5033749;28;20032;-75
2021/09/17 14:06:59;;;;;;;8.23;5.88;;;;;;;;;;5004482;28;20684;-76
2021/09/17 14:09:26;;;;;;;8.40;6.57;;;;;;;;;;5021945;28;20099;-75
2021/09/17 14:11:52;;;;;;;8.55;6.32;;;;;;;;;;5020292;28;20052;-75
2021/09/17 14:14:19;;;;;;;7.85;5.95;;;;;;;;;;5021701;28;20026;-72
2021/09/17 14:16:46;;;;;;;8.25;6.53;;;;;;;;;;5020362;28;20947;-75
2021/09/17 14:19:15;;;;;;;9.73;6.47;;;;;;;;;;5019756;28;20032;-74
2021/09/17 14:21:43;;;;;;;7.13;6.35;;;;;;;;;;5020658;28;20061;-74
2021/09/17 14:24:10;;;;;;;7.57;6.80;;;;;;;;;;5021690;28;20108;-75
2021/09/17 14:26:36;;;;;;;7.75;6.90;;;;;;;;;;5021866;28;20036;-72
2021/09/17 14:29:02;;;;;;;10.80;7.25;;;;;;;;;;5021987;28;20083;-74
2021/09/17 14:31:29;;;;;;;9.95;6.70;;;;;;;;;;5021394;28;20353;-75
2021/09/17 14:33:55;;;;;;;8.18;7.03;;;;;;;;;;5019672;28;20029;-74
2021/09/17 14:36:21;;;;;;;9.88;7.18;;;;;;;;;;5020657;28;20067;-73